My Meet Scores
Sydney Schuster, Gym Kinetics Gymnastics - MyMeetScores.com
Top100 | Top Teams | Upcoming Meets | Completed Meets | Latest | Add Scores | Help| Support | Bookmark and Share

Sydney Schuster, Gym Kinetics Gymnastics
Personal Bests
LevelVault BarsBeamFloorAA
39.4259.775 9.5259.67538.000
48.7509.450 9.4759.37536.700
58.6009.250 8.9759.15035.800
Meet Scores
Date Meet Team Session Level Division Vault Bars Beam Floor AA
2021-02-26 Kinetic Classic 2021 Gym Kinetics Gymnastics 11 5 Older 8.575 17 9.250 11 8.975 12 9.000 10 35.800 13
2021-02-12 Harley Meet Women - Midwest Twisters Gym Kinetics Gymnastics O01 5 Sr A 8.500 10 9.175 6 8.725 8 8.550 6T 34.950 7
2021-01-21 King Arthur Invitational Gym Kinetics Gymnastics 6 5 JR 8.425 11 8.250 9 8.250 13 9.100 6 34.025 12
2021-01-14 2021 Bravo Classic Gym Kinetics Gymnastics 9 5 Sr 8.500 10T 8.925 5 7.675 15 9.000 5 34.100 9
2020-12-18 Aspire Classic Gym Kinetics Gymnastics 2 5 Younger 8.600 18 8.800 11 8.500 17T 9.150 4T 35.050 15
2020-03-06 Illinois Level 4 State Championships Gym Kinetics Gymnastics 5 4 Jr D 8.550 24 9.350 10T 9.475 6 9.325 8T 36.700 12
2020-02-21 Kinetic Classic Gym Kinetics Gymnastics 06 4 Middle 8.475 45T 9.350 24T 9.150 40T 9.200 23T 36.175 30T
2020-01-31 Chow's Challenge Gym Kinetics Gymnastics B2 4 Jr C 8.400 9 8.575 7 8.525 9 8.700 7T 34.200 7
2020-01-17 2020 Bravo Classic Gym Kinetics Gymnastics 6B 4 Jr 8.500 16 9.450 4T 8.650 17 9.250 8T 35.850 12
2020-01-10 Leenda's Island Adventure Gym Kinetics Gymnastics PG6 4 10 Year Ol 8.325 18 9.350 7 8.700 17 9.375 4T 35.750 10
2019-12-20 Aspire Classic - 2019 Gym Kinetics Gymnastics 7A 4 Older 8.300 13 8.775 10 8.475 20 9.125 5 34.675 16
2019-12-06 Ultimate Wish Classic Gym Kinetics Gymnastics 10 4 SR A 8.750 6 8.900 7 7.850 16 9.000 8T 34.500 10
2019-03-08 2019 Illinois Level 3 State Championship Gym Kinetics Gymnastics 3 3 Jr D 9.350 15T 9.775 3T 9.250 5 9.625 1 38.000 3
2019-02-23 Kinetic Classic 2019 Gym Kinetics Gymnastics 1 3 Older 9.050 18T 9.300 18T 9.050 30T 9.200 14T 36.600 18
2019-02-08 Midwest Twisters Harley Meet Womens Gym Kinetics Gymnastics T07 3 9 yrs. 9.275 8 9.475 1T 8.950 10 9.500 2 37.200 3
2019-01-18 2019 Bravo Classic Gym Kinetics Gymnastics 6B 3 Sr 9.425 5 9.575 2 8.875 13 9.125 7T 37.000 5
2019-01-11 St Jude Benefit Meet Gym Kinetics Gymnastics 2A 3 Sr A 9.400 3T 9.450 2 9.525 3 9.350 5 37.725 1
2018-12-14 2018 Aspire Classic Gym Kinetics Gymnastics 10A 3 Older 9.000 14T 9.275 16T 9.275 10T 9.675 2 37.225 6
2018-05-03 Illinois USA Gymnastics Level 3 State Championships Gym Kinetics Gymnastics 3 3 Youth C 9.350 21T 9.425 13 9.125 14T 9.100 20T 37.000 17T
2018-02-23 Kinetic Classic Gym Kinetics Gymnastics 5 3 Middle 8.800 51T 8.900 65 8.450 71T 9.450 17T 35.600 58
2018-02-09 Arizona Sunrays Classic Rock Invitational Gym Kinetics Gymnastics R02 3 JrA 9.175 5 9.150 2 8.950 5 9.450 2T 36.725 2
2018-02-03 Midwest Games Gym Kinetics Gymnastics 5 3 JR B 8.925 9 9.300 6 7.600 16 9.400 6 35.225 14
2018-01-19 2018 Bravo Classic Gym Kinetics Gymnastics 6B 3 Jr 9.100 13T 9.400 3T 9.000 8T 9.025 7T 36.525 6
2017-12-15 2017 Aspire Classic Gym Kinetics Gymnastics 10A 3 Middle 9.275 8 9.225 5T 8.625 9 9.450 5 36.575 6T
Get your scores on
a t-shirt, pin, or hoodie

www.lazysuits.com